Aeroporto :
LOGIN :

Iscrizione | Disclaimer

   EN    FR    IT 

 










Sommario :    VFR   VFR Marginale   IFR   IFR Intensivo   IFR Molto Intensivo
Visibilità : 
Base nubi : 
>= 8 km
>= 3000ft
5 / 8 km
1000 / 3000 ft
1500m / 5 km
500 / 1000 ft
800 / 1500m
200 / 500 ft
< 800m
< 200 ft
Simboli :   Temporali  Nebbia  Neve Forte  Precipitazioni Forti  Vento > 20 kt
SIGMETs :   Varie  Temporali  Ghiacco  Turbolenza  Onda orograficha  Ceneri Vulcaniche






- Altitudine del aeroporto : 506 ft
- Codice IATA : GOT


ESGG - Landvetter

ULTIMO METAR :
  • 171550Z 22024G35KT 8000 -RA BKN008 04/03 Q0993 R21/29//95

METARs OBSOLETI :
  • 171520Z 22024G36KT 7000 -RA BKN008 04/03 Q0993 R21/29//95
  • 171450Z 22021KT 6000 -SHRA BKN010CB 04/03 Q0993 R21/29//95
  • 171420Z 22024G35KT 6000 -RA SCT009 BKN017 04/03 Q0993 R21/29//95
  • 171350Z 22025KT 7000 -RA FEW005 BKN009 04/03 Q0993 R21/29//95
  • 171320Z 22025KT 8000 -DZ OVC008 04/03 Q0993 R21/29//95

TAF AMD TAF ESGG
Valido dal 17 a 13 ore il 18 a 12 ore UTC


171330Z 1713/1812 21025G35KT 9999 BKN020
PROB40 1713/1723 4000 RA BKN008 BKN020CB
BECMG 1721/1723 24013G25KT
PROB40 1808/1812 4000 SHRA BKN009 BKN020CB



MetMap, La meteo Aeronautica in un colpo d'occhio ! - Copyright ORBIFLY Dicembre 2007 - Disclaimer

ORBIFLY MET'MAP TEAM :

Programmazione e sviluppo : Alexandra Zaïnal
Concezione : Baudouin d'Aumeries
Aiuto per la programmazione : Marc-Olivier Méhu
Supporto tecnico e logistico : Manuel Goepfert
Aiuto per la traduzione : Arnaldo La Scala

Contatto : metmap@orbifly.com




FONTI E CREDITI :

   NOAA